sensor_id;sensor_type;location;lat;lon;timestamp;pressure;altitude;pressure_sealevel;temperature;humidity
44148;BME280;29810;55.848;37.368;2022-12-18T00:00:00;98621.03;;;-5.73;100.00
44148;BME280;29810;55.848;37.368;2022-12-18T00:03:05;98613.37;;;-5.76;100.00
44148;BME280;29810;55.848;37.368;2022-12-18T00:06:07;98617.03;;;-5.61;100.00
44148;BME280;29810;55.848;37.368;2022-12-18T00:09:09;98618.84;;;-5.54;100.00
44148;BME280;29810;55.848;37.368;2022-12-18T00:12:11;98604.38;;;-5.58;100.00
44148;BME280;29810;55.848;37.368;2022-12-18T00:15:12;98591.56;;;-5.65;100.00
44148;BME280;29810;55.848;37.368;2022-12-18T00:18:14;98586.44;;;-5.68;100.00
44148;BME280;29810;55.848;37.368;2022-12-18T00:21:16;98588.81;;;-5.75;100.00
44148;BME280;29810;55.848;37.368;2022-12-18T00:24:17;98603.19;;;-5.77;100.00
44148;BME280;29810;55.848;37.368;2022-12-18T00:27:19;98573.78;;;-5.65;100.00
44148;BME280;29810;55.848;37.368;2022-12-18T00:30:21;98580.56;;;-5.65;100.00
44148;BME280;29810;55.848;37.368;2022-12-18T00:33:23;98569.38;;;-5.75;100.00
44148;BME280;29810;55.848;37.368;2022-12-18T00:36:28;98572.56;;;-5.87;100.00
44148;BME280;29810;55.848;37.368;2022-12-18T00:39:29;98569.47;;;-5.69;100.00
44148;BME280;29810;55.848;37.368;2022-12-18T00:42:31;98550.97;;;-5.61;100.00
44148;BME280;29810;55.848;37.368;2022-12-18T00:45:51;98557.50;;;-5.76;100.00
44148;BME280;29810;55.848;37.368;2022-12-18T00:48:53;98530.28;;;-5.83;100.00
44148;BME280;29810;55.848;37.368;2022-12-18T00:51:55;98551.66;;;-5.70;100.00
44148;BME280;29810;55.848;37.368;2022-12-18T00:54:57;98587.34;;;-5.64;100.00
44148;BME280;29810;55.848;37.368;2022-12-18T00:57:58;98544.72;;;-5.79;100.00
44148;BME280;29810;55.848;37.368;2022-12-18T01:01:00;98544.50;;;-5.93;100.00
44148;BME280;29810;55.848;37.368;2022-12-18T01:04:02;98547.16;;;-5.87;100.00
44148;BME280;29810;55.848;37.368;2022-12-18T01:07:04;98529.25;;;-5.94;100.00
44148;BME280;29810;55.848;37.368;2022-12-18T01:10:06;98530.34;;;-5.80;100.00
44148;BME280;29810;55.848;37.368;2022-12-18T01:13:09;98518.62;;;-5.72;100.00
44148;BME280;29810;55.848;37.368;2022-12-18T01:16:12;98552.28;;;-5.85;100.00
44148;BME280;29810;55.848;37.368;2022-12-18T01:19:14;98525.00;;;-5.95;100.00
44148;BME280;29810;55.848;37.368;2022-12-18T01:22:16;98524.47;;;-5.77;100.00
44148;BME280;29810;55.848;37.368;2022-12-18T01:25:19;98485.13;;;-6.01;100.00
44148;BME280;29810;55.848;37.368;2022-12-18T01:28:20;98507.56;;;-5.74;100.00
44148;BME280;29810;55.848;37.368;2022-12-18T01:31:23;98510.19;;;-5.71;100.00
44148;BME280;29810;55.848;37.368;2022-12-18T01:34:25;98519.41;;;-5.76;100.00
44148;BME280;29810;55.848;37.368;2022-12-18T01:37:27;98514.87;;;-5.92;100.00
44148;BME280;29810;55.848;37.368;2022-12-18T01:40:29;98519.28;;;-5.84;100.00
44148;BME280;29810;55.848;37.368;2022-12-18T01:44:00;98502.44;;;-5.78;100.00
44148;BME280;29810;55.848;37.368;2022-12-18T01:47:02;98513.94;;;-5.97;100.00
44148;BME280;29810;55.848;37.368;2022-12-18T01:50:31;98515.66;;;-5.96;100.00
44148;BME280;29810;55.848;37.368;2022-12-18T01:53:30;98497.13;;;-5.91;100.00
44148;BME280;29810;55.848;37.368;2022-12-18T01:56:32;98495.50;;;-5.89;100.00
44148;BME280;29810;55.848;37.368;2022-12-18T01:59:35;98505.56;;;-5.93;100.00
44148;BME280;29810;55.848;37.368;2022-12-18T02:02:39;98498.81;;;-5.91;100.00
44148;BME280;29810;55.848;37.368;2022-12-18T02:12:21;98516.59;;;-5.91;100.00
44148;BME280;29810;55.848;37.368;2022-12-18T02:15:30;98511.34;;;-6.04;100.00
44148;BME280;29810;55.848;37.368;2022-12-18T02:18:41;98509.69;;;-6.02;100.00
44148;BME280;29810;55.848;37.368;2022-12-18T02:22:00;98527.94;;;-6.21;100.00
44148;BME280;29810;55.848;37.368;2022-12-18T02:28:42;98518.84;;;-6.10;100.00
44148;BME280;29810;55.848;37.368;2022-12-18T02:31:50;98527.28;;;-6.11;100.00
44148;BME280;29810;55.848;37.368;2022-12-18T02:34:55;98493.69;;;-6.42;100.00
44148;BME280;29810;55.848;37.368;2022-12-18T02:37:58;98514.37;;;-6.23;100.00
44148;BME280;29810;55.848;37.368;2022-12-18T02:41:02;98483.81;;;-6.29;100.00
44148;BME280;29810;55.848;37.368;2022-12-18T02:44:10;98514.47;;;-6.17;100.00
44148;BME280;29810;55.848;37.368;2022-12-18T02:47:14;98513.44;;;-6.27;100.00
44148;BME280;29810;55.848;37.368;2022-12-18T02:53:25;98522.87;;;-6.20;100.00
44148;BME280;29810;55.848;37.368;2022-12-18T02:56:38;98543.97;;;-6.22;100.00
44148;BME280;29810;55.848;37.368;2022-12-18T02:59:54;98514.41;;;-6.20;100.00
44148;BME280;29810;55.848;37.368;2022-12-18T03:06:14;98526.22;;;-6.22;100.00
44148;BME280;29810;55.848;37.368;2022-12-18T03:09:39;98508.53;;;-6.19;100.00
44148;BME280;29810;55.848;37.368;2022-12-18T03:12:53;98512.56;;;-6.29;100.00
44148;BME280;29810;55.848;37.368;2022-12-18T03:15:58;98495.59;;;-6.32;100.00
44148;BME280;29810;55.848;37.368;2022-12-18T03:19:04;98508.91;;;-6.42;100.00
44148;BME280;29810;55.848;37.368;2022-12-18T03:22:08;98502.34;;;-6.32;100.00
44148;BME280;29810;55.848;37.368;2022-12-18T03:25:14;98481.19;;;-6.33;100.00
44148;BME280;29810;55.848;37.368;2022-12-18T03:28:21;98520.94;;;-6.33;100.00
44148;BME280;29810;55.848;37.368;2022-12-18T03:31:26;98500.50;;;-6.41;100.00
44148;BME280;29810;55.848;37.368;2022-12-18T03:34:34;98500.19;;;-6.55;100.00
44148;BME280;29810;55.848;37.368;2022-12-18T03:37:37;98491.06;;;-6.48;100.00
44148;BME280;29810;55.848;37.368;2022-12-18T03:40:56;98542.47;;;-6.55;100.00
44148;BME280;29810;55.848;37.368;2022-12-18T03:44:14;98513.63;;;-6.60;100.00
44148;BME280;29810;55.848;37.368;2022-12-18T03:47:22;98524.69;;;-6.57;100.00
44148;BME280;29810;55.848;37.368;2022-12-18T03:50:53;98519.28;;;-6.74;100.00
44148;BME280;29810;55.848;37.368;2022-12-18T03:54:01;98505.16;;;-6.62;100.00
44148;BME280;29810;55.848;37.368;2022-12-18T03:57:13;98538.16;;;-6.59;100.00
44148;BME280;29810;55.848;37.368;2022-12-18T04:00:17;98510.25;;;-6.61;100.00
44148;BME280;29810;55.848;37.368;2022-12-18T04:03:25;98500.72;;;-6.73;100.00
44148;BME280;29810;55.848;37.368;2022-12-18T04:06:28;98535.44;;;-6.69;100.00
44148;BME280;29810;55.848;37.368;2022-12-18T04:09:32;98510.97;;;-6.67;100.00
44148;BME280;29810;55.848;37.368;2022-12-18T04:12:37;98554.00;;;-6.70;100.00
44148;BME280;29810;55.848;37.368;2022-12-18T04:15:44;98525.34;;;-6.66;100.00
44148;BME280;29810;55.848;37.368;2022-12-18T04:18:48;98520.22;;;-6.69;100.00
44148;BME280;29810;55.848;37.368;2022-12-18T04:25:38;98549.88;;;-6.66;100.00
44148;BME280;29810;55.848;37.368;2022-12-18T04:28:40;98536.38;;;-6.65;100.00
44148;BME280;29810;55.848;37.368;2022-12-18T04:31:41;98548.94;;;-6.70;100.00
44148;BME280;29810;55.848;37.368;2022-12-18T04:34:43;98557.41;;;-6.69;100.00
44148;BME280;29810;55.848;37.368;2022-12-18T04:37:45;98584.50;;;-6.67;100.00
44148;BME280;29810;55.848;37.368;2022-12-18T04:40:47;98589.66;;;-6.63;100.00
44148;BME280;29810;55.848;37.368;2022-12-18T04:43:49;98591.22;;;-6.69;100.00
44148;BME280;29810;55.848;37.368;2022-12-18T04:46:51;98569.03;;;-6.79;100.00
44148;BME280;29810;55.848;37.368;2022-12-18T04:49:52;98576.69;;;-6.76;100.00
44148;BME280;29810;55.848;37.368;2022-12-18T04:52:55;98597.53;;;-6.89;100.00
44148;BME280;29810;55.848;37.368;2022-12-18T04:56:04;98560.44;;;-6.86;100.00
44148;BME280;29810;55.848;37.368;2022-12-18T04:59:06;98585.81;;;-6.84;100.00
44148;BME280;29810;55.848;37.368;2022-12-18T05:02:08;98583.53;;;-6.72;100.00
44148;BME280;29810;55.848;37.368;2022-12-18T05:05:10;98582.56;;;-6.77;100.00
44148;BME280;29810;55.848;37.368;2022-12-18T05:08:12;98582.25;;;-6.92;100.00
44148;BME280;29810;55.848;37.368;2022-12-18T05:11:14;98623.06;;;-6.82;100.00
44148;BME280;29810;55.848;37.368;2022-12-18T05:14:16;98578.09;;;-6.89;100.00
44148;BME280;29810;55.848;37.368;2022-12-18T05:17:18;98627.19;;;-6.85;100.00
44148;BME280;29810;55.848;37.368;2022-12-18T05:20:19;98591.69;;;-6.85;100.00
44148;BME280;29810;55.848;37.368;2022-12-18T05:23:22;98590.06;;;-6.83;100.00
44148;BME280;29810;55.848;37.368;2022-12-18T05:26:24;98587.75;;;-6.74;100.00
44148;BME280;29810;55.848;37.368;2022-12-18T05:29:26;98590.47;;;-6.64;100.00
44148;BME280;29810;55.848;37.368;2022-12-18T05:32:27;98623.25;;;-6.72;100.00
44148;BME280;29810;55.848;37.368;2022-12-18T05:35:29;98646.72;;;-6.81;100.00
44148;BME280;29810;55.848;37.368;2022-12-18T05:38:32;98621.94;;;-6.93;100.00
44148;BME280;29810;55.848;37.368;2022-12-18T05:41:34;98636.56;;;-6.81;100.00
44148;BME280;29810;55.848;37.368;2022-12-18T05:44:36;98635.34;;;-6.99;100.00
44148;BME280;29810;55.848;37.368;2022-12-18T05:47:38;98586.22;;;-7.39;100.00
44148;BME280;29810;55.848;37.368;2022-12-18T05:50:41;98666.56;;;-7.00;100.00
44148;BME280;29810;55.848;37.368;2022-12-18T05:53:43;98657.56;;;-6.88;100.00
44148;BME280;29810;55.848;37.368;2022-12-18T05:56:45;98673.72;;;-6.83;100.00
44148;BME280;29810;55.848;37.368;2022-12-18T05:59:47;98663.25;;;-6.97;100.00
44148;BME280;29810;55.848;37.368;2022-12-18T06:02:48;98653.06;;;-6.99;100.00
44148;BME280;29810;55.848;37.368;2022-12-18T06:05:50;98648.16;;;-6.92;100.00
44148;BME280;29810;55.848;37.368;2022-12-18T06:08:53;98665.69;;;-7.02;100.00
44148;BME280;29810;55.848;37.368;2022-12-18T06:11:55;98671.69;;;-6.96;100.00
44148;BME280;29810;55.848;37.368;2022-12-18T06:14:57;98668.06;;;-7.08;100.00
44148;BME280;29810;55.848;37.368;2022-12-18T06:18:00;98688.78;;;-6.89;100.00
44148;BME280;29810;55.848;37.368;2022-12-18T06:21:02;98680.28;;;-6.91;100.00
44148;BME280;29810;55.848;37.368;2022-12-18T06:24:04;98683.88;;;-6.83;100.00
44148;BME280;29810;55.848;37.368;2022-12-18T06:27:06;98717.41;;;-6.93;100.00
44148;BME280;29810;55.848;37.368;2022-12-18T06:30:08;98706.53;;;-6.89;100.00
44148;BME280;29810;55.848;37.368;2022-12-18T06:33:10;98722.31;;;-7.00;100.00
44148;BME280;29810;55.848;37.368;2022-12-18T06:36:12;98707.28;;;-6.93;100.00
44148;BME280;29810;55.848;37.368;2022-12-18T06:39:14;98705.91;;;-6.80;100.00
44148;BME280;29810;55.848;37.368;2022-12-18T06:42:16;98721.75;;;-6.89;100.00
44148;BME280;29810;55.848;37.368;2022-12-18T06:45:17;98739.72;;;-6.80;100.00
44148;BME280;29810;55.848;37.368;2022-12-18T06:48:19;98743.91;;;-6.82;100.00
44148;BME280;29810;55.848;37.368;2022-12-18T06:51:22;98744.94;;;-6.74;100.00
44148;BME280;29810;55.848;37.368;2022-12-18T06:54:24;98763.50;;;-6.75;100.00
44148;BME280;29810;55.848;37.368;2022-12-18T06:57:25;98771.03;;;-6.79;100.00
44148;BME280;29810;55.848;37.368;2022-12-18T07:00:27;98760.31;;;-6.68;100.00
44148;BME280;29810;55.848;37.368;2022-12-18T07:03:29;98764.25;;;-6.79;100.00
44148;BME280;29810;55.848;37.368;2022-12-18T07:06:31;98771.06;;;-6.78;100.00
44148;BME280;29810;55.848;37.368;2022-12-18T07:09:32;98764.03;;;-6.88;100.00
44148;BME280;29810;55.848;37.368;2022-12-18T07:12:34;98696.53;;;-7.18;100.00
44148;BME280;29810;55.848;37.368;2022-12-18T07:15:36;98748.69;;;-6.93;100.00
44148;BME280;29810;55.848;37.368;2022-12-18T07:18:38;98789.72;;;-6.74;100.00
44148;BME280;29810;55.848;37.368;2022-12-18T07:21:39;98798.41;;;-6.66;100.00
44148;BME280;29810;55.848;37.368;2022-12-18T07:24:41;98784.22;;;-6.58;100.00
44148;BME280;29810;55.848;37.368;2022-12-18T07:27:42;98765.94;;;-6.79;100.00
44148;BME280;29810;55.848;37.368;2022-12-18T07:30:44;98737.31;;;-7.09;100.00
44148;BME280;29810;55.848;37.368;2022-12-18T07:33:46;98753.47;;;-7.04;100.00
44148;BME280;29810;55.848;37.368;2022-12-18T07:36:49;98745.94;;;-7.01;100.00
44148;BME280;29810;55.848;37.368;2022-12-18T07:39:50;98765.78;;;-6.86;100.00
44148;BME280;29810;55.848;37.368;2022-12-18T07:42:52;98743.81;;;-6.85;100.00
44148;BME280;29810;55.848;37.368;2022-12-18T07:45:54;98731.75;;;-6.94;100.00
44148;BME280;29810;55.848;37.368;2022-12-18T07:48:59;98819.31;;;-6.41;100.00
44148;BME280;29810;55.848;37.368;2022-12-18T07:52:01;98816.62;;;-6.46;100.00
44148;BME280;29810;55.848;37.368;2022-12-18T07:55:03;98832.03;;;-6.40;100.00
44148;BME280;29810;55.848;37.368;2022-12-18T07:58:05;98821.28;;;-6.29;100.00
44148;BME280;29810;55.848;37.368;2022-12-18T08:01:09;98789.69;;;-6.76;100.00
44148;BME280;29810;55.848;37.368;2022-12-18T08:04:14;98771.94;;;-6.76;100.00
44148;BME280;29810;55.848;37.368;2022-12-18T08:07:15;98871.69;;;-6.42;100.00
44148;BME280;29810;55.848;37.368;2022-12-18T08:10:18;98856.91;;;-6.25;100.00
44148;BME280;29810;55.848;37.368;2022-12-18T08:13:20;98726.94;;;-6.85;100.00
44148;BME280;29810;55.848;37.368;2022-12-18T08:16:22;98793.00;;;-6.45;100.00
44148;BME280;29810;55.848;37.368;2022-12-18T08:19:24;98824.16;;;-6.51;100.00
44148;BME280;29810;55.848;37.368;2022-12-18T08:22:26;98887.69;;;-6.12;100.00
44148;BME280;29810;55.848;37.368;2022-12-18T08:25:27;98837.28;;;-6.32;100.00
44148;BME280;29810;55.848;37.368;2022-12-18T08:28:29;98898.09;;;-6.02;100.00
44148;BME280;29810;55.848;37.368;2022-12-18T08:31:31;98931.22;;;-5.95;100.00
44148;BME280;29810;55.848;37.368;2022-12-18T08:34:33;98910.72;;;-6.05;100.00
44148;BME280;29810;55.848;37.368;2022-12-18T08:37:34;98902.47;;;-5.94;100.00
44148;BME280;29810;55.848;37.368;2022-12-18T08:40:36;98854.06;;;-6.37;100.00
44148;BME280;29810;55.848;37.368;2022-12-18T08:43:37;98901.69;;;-5.92;100.00
44148;BME280;29810;55.848;37.368;2022-12-18T08:46:57;98918.75;;;-5.86;100.00
44148;BME280;29810;55.848;37.368;2022-12-18T08:50:00;98910.37;;;-5.82;100.00
44148;BME280;29810;55.848;37.368;2022-12-18T08:53:04;98893.50;;;-5.80;100.00
44148;BME280;29810;55.848;37.368;2022-12-18T08:56:07;98911.94;;;-5.87;100.00
44148;BME280;29810;55.848;37.368;2022-12-18T08:59:09;98801.94;;;-6.24;100.00
44148;BME280;29810;55.848;37.368;2022-12-18T09:02:11;98932.19;;;-5.90;100.00
44148;BME280;29810;55.848;37.368;2022-12-18T09:05:13;98938.31;;;-5.82;100.00
44148;BME280;29810;55.848;37.368;2022-12-18T09:08:14;98907.69;;;-5.88;100.00
44148;BME280;29810;55.848;37.368;2022-12-18T09:11:22;98862.69;;;-6.30;100.00
44148;BME280;29810;55.848;37.368;2022-12-18T09:14:25;98883.22;;;-6.21;100.00
44148;BME280;29810;55.848;37.368;2022-12-18T09:17:27;98937.25;;;-5.92;100.00
44148;BME280;29810;55.848;37.368;2022-12-18T09:20:28;98937.09;;;-5.98;100.00
44148;BME280;29810;55.848;37.368;2022-12-18T09:23:31;98936.88;;;-6.07;100.00
44148;BME280;29810;55.848;37.368;2022-12-18T09:26:32;98931.28;;;-5.92;100.00
44148;BME280;29810;55.848;37.368;2022-12-18T09:29:34;98944.00;;;-5.91;100.00
44148;BME280;29810;55.848;37.368;2022-12-18T09:32:35;98918.22;;;-6.08;100.00
44148;BME280;29810;55.848;37.368;2022-12-18T09:35:41;98979.94;;;-5.75;100.00
44148;BME280;29810;55.848;37.368;2022-12-18T09:38:43;98990.97;;;-5.75;100.00
44148;BME280;29810;55.848;37.368;2022-12-18T09:41:54;98983.81;;;-5.56;100.00
44148;BME280;29810;55.848;37.368;2022-12-18T09:44:58;98962.00;;;-5.82;100.00
44148;BME280;29810;55.848;37.368;2022-12-18T09:48:03;98995.34;;;-5.69;100.00
44148;BME280;29810;55.848;37.368;2022-12-18T09:51:34;98998.69;;;-5.70;100.00
44148;BME280;29810;55.848;37.368;2022-12-18T09:54:48;98981.41;;;-5.85;100.00
44148;BME280;29810;55.848;37.368;2022-12-18T09:57:55;99011.31;;;-5.75;100.00
44148;BME280;29810;55.848;37.368;2022-12-18T10:00:58;99006.84;;;-5.84;100.00
44148;BME280;29810;55.848;37.368;2022-12-18T10:04:00;99006.12;;;-5.78;100.00
44148;BME280;29810;55.848;37.368;2022-12-18T10:07:08;98998.41;;;-5.83;100.00
44148;BME280;29810;55.848;37.368;2022-12-18T10:13:48;99033.13;;;-5.82;100.00
44148;BME280;29810;55.848;37.368;2022-12-18T10:20:16;99035.50;;;-5.89;100.00
44148;BME280;29810;55.848;37.368;2022-12-18T10:23:32;99048.56;;;-6.07;100.00
44148;BME280;29810;55.848;37.368;2022-12-18T10:26:35;99033.63;;;-5.95;100.00
44148;BME280;29810;55.848;37.368;2022-12-18T10:29:37;99038.03;;;-5.89;100.00
44148;BME280;29810;55.848;37.368;2022-12-18T10:32:39;99032.28;;;-5.82;100.00
44148;BME280;29810;55.848;37.368;2022-12-18T10:35:41;99026.28;;;-5.84;100.00
44148;BME280;29810;55.848;37.368;2022-12-18T10:38:43;99005.22;;;-6.15;100.00
44148;BME280;29810;55.848;37.368;2022-12-18T10:41:45;99014.50;;;-6.16;100.00
44148;BME280;29810;55.848;37.368;2022-12-18T10:45:01;99040.31;;;-5.99;100.00
44148;BME280;29810;55.848;37.368;2022-12-18T10:48:18;99045.31;;;-6.03;100.00
44148;BME280;29810;55.848;37.368;2022-12-18T10:51:24;99030.25;;;-6.27;100.00
44148;BME280;29810;55.848;37.368;2022-12-18T10:54:27;99040.03;;;-6.09;100.00
44148;BME280;29810;55.848;37.368;2022-12-18T10:57:38;99071.03;;;-6.21;100.00
44148;BME280;29810;55.848;37.368;2022-12-18T11:00:42;99047.34;;;-6.22;100.00
44148;BME280;29810;55.848;37.368;2022-12-18T11:04:00;99068.41;;;-6.24;100.00
44148;BME280;29810;55.848;37.368;2022-12-18T11:07:07;99063.25;;;-6.27;100.00
44148;BME280;29810;55.848;37.368;2022-12-18T11:10:25;99064.16;;;-6.25;100.00
44148;BME280;29810;55.848;37.368;2022-12-18T11:13:29;99075.75;;;-6.03;100.00
44148;BME280;29810;55.848;37.368;2022-12-18T11:16:42;99102.78;;;-6.05;100.00
44148;BME280;29810;55.848;37.368;2022-12-18T11:19:44;99085.91;;;-6.03;100.00
44148;BME280;29810;55.848;37.368;2022-12-18T11:23:04;99080.09;;;-5.97;100.00
44148;BME280;29810;55.848;37.368;2022-12-18T11:26:13;99076.63;;;-6.03;100.00
44148;BME280;29810;55.848;37.368;2022-12-18T11:29:23;99083.56;;;-5.95;100.00
44148;BME280;29810;55.848;37.368;2022-12-18T11:33:28;99104.94;;;-5.87;100.00
44148;BME280;29810;55.848;37.368;2022-12-18T11:36:11;99103.66;;;-6.05;100.00
44148;BME280;29810;55.848;37.368;2022-12-18T11:39:37;99091.94;;;-6.00;100.00
44148;BME280;29810;55.848;37.368;2022-12-18T11:42:46;99135.38;;;-5.89;100.00
44148;BME280;29810;55.848;37.368;2022-12-18T11:45:53;99107.41;;;-5.90;100.00
44148;BME280;29810;55.848;37.368;2022-12-18T11:52:27;99120.53;;;-6.05;100.00
44148;BME280;29810;55.848;37.368;2022-12-18T11:55:51;99106.00;;;-6.11;100.00
44148;BME280;29810;55.848;37.368;2022-12-18T12:09:04;99154.66;;;-5.95;100.00
44148;BME280;29810;55.848;37.368;2022-12-18T12:12:29;99172.63;;;-5.89;100.00
44148;BME280;29810;55.848;37.368;2022-12-18T12:19:15;99147.91;;;-6.25;100.00
44148;BME280;29810;55.848;37.368;2022-12-18T12:25:50;99185.16;;;-5.94;100.00
44148;BME280;29810;55.848;37.368;2022-12-18T12:39:13;99191.78;;;-6.01;100.00
44148;BME280;29810;55.848;37.368;2022-12-18T12:42:40;99225.50;;;-6.05;100.00
44148;BME280;29810;55.848;37.368;2022-12-18T12:46:07;99220.66;;;-5.95;100.00
44148;BME280;29810;55.848;37.368;2022-12-18T12:49:14;99264.22;;;-5.82;100.00
44148;BME280;29810;55.848;37.368;2022-12-18T12:55:32;99264.13;;;-5.86;100.00
44148;BME280;29810;55.848;37.368;2022-12-18T13:05:03;99244.41;;;-5.93;100.00
44148;BME280;29810;55.848;37.368;2022-12-18T13:08:09;99271.09;;;-5.79;100.00
44148;BME280;29810;55.848;37.368;2022-12-18T13:11:28;99287.94;;;-5.83;100.00
44148;BME280;29810;55.848;37.368;2022-12-18T13:14:49;99299.47;;;-5.63;100.00
44148;BME280;29810;55.848;37.368;2022-12-18T13:21:29;99295.88;;;-5.72;100.00
44148;BME280;29810;55.848;37.368;2022-12-18T13:24:31;99307.75;;;-5.71;100.00
44148;BME280;29810;55.848;37.368;2022-12-18T13:27:46;99314.37;;;-5.76;100.00
44148;BME280;29810;55.848;37.368;2022-12-18T13:30:57;99314.37;;;-5.76;100.00
44148;BME280;29810;55.848;37.368;2022-12-18T13:34:21;99336.03;;;-5.87;100.00
44148;BME280;29810;55.848;37.368;2022-12-18T13:37:40;99346.09;;;-5.90;100.00
44148;BME280;29810;55.848;37.368;2022-12-18T13:44:17;99350.47;;;-5.86;100.00
44148;BME280;29810;55.848;37.368;2022-12-18T13:47:34;99383.28;;;-5.92;100.00
44148;BME280;29810;55.848;37.368;2022-12-18T13:50:38;99385.09;;;-5.88;100.00
44148;BME280;29810;55.848;37.368;2022-12-18T13:53:49;99373.81;;;-5.98;100.00
44148;BME280;29810;55.848;37.368;2022-12-18T13:56:56;99367.06;;;-5.96;100.00
44148;BME280;29810;55.848;37.368;2022-12-18T13:59:59;99374.00;;;-5.92;100.00
44148;BME280;29810;55.848;37.368;2022-12-18T14:03:23;99422.94;;;-5.96;100.00
44148;BME280;29810;55.848;37.368;2022-12-18T14:06:27;99409.38;;;-5.96;100.00
44148;BME280;29810;55.848;37.368;2022-12-18T14:09:35;99417.50;;;-6.08;100.00
44148;BME280;29810;55.848;37.368;2022-12-18T14:12:38;99409.78;;;-6.11;100.00
44148;BME280;29810;55.848;37.368;2022-12-18T14:16:00;99436.13;;;-6.08;100.00
44148;BME280;29810;55.848;37.368;2022-12-18T14:19:03;99420.28;;;-6.26;100.00
44148;BME280;29810;55.848;37.368;2022-12-18T14:22:05;99427.88;;;-6.26;100.00
44148;BME280;29810;55.848;37.368;2022-12-18T14:28:17;99448.91;;;-6.30;100.00
44148;BME280;29810;55.848;37.368;2022-12-18T14:31:29;99438.81;;;-6.29;100.00
44148;BME280;29810;55.848;37.368;2022-12-18T14:34:32;99457.00;;;-6.41;100.00
44148;BME280;29810;55.848;37.368;2022-12-18T14:37:33;99457.81;;;-6.42;100.00
44148;BME280;29810;55.848;37.368;2022-12-18T14:40:36;99457.00;;;-6.41;100.00
44148;BME280;29810;55.848;37.368;2022-12-18T14:43:40;99488.53;;;-6.34;100.00
44148;BME280;29810;55.848;37.368;2022-12-18T14:46:45;99474.63;;;-6.45;100.00
44148;BME280;29810;55.848;37.368;2022-12-18T14:49:47;99487.34;;;-6.44;100.00
44148;BME280;29810;55.848;37.368;2022-12-18T14:52:49;99488.25;;;-6.42;100.00
44148;BME280;29810;55.848;37.368;2022-12-18T14:55:51;99488.97;;;-6.46;99.47
44148;BME280;29810;55.848;37.368;2022-12-18T14:58:58;99491.06;;;-6.34;100.00
44148;BME280;29810;55.848;37.368;2022-12-18T15:05:26;99512.94;;;-6.38;100.00
44148;BME280;29810;55.848;37.368;2022-12-18T15:08:30;99496.56;;;-6.46;100.00
44148;BME280;29810;55.848;37.368;2022-12-18T15:11:45;99534.63;;;-6.46;100.00
44148;BME280;29810;55.848;37.368;2022-12-18T15:14:47;99509.12;;;-6.51;100.00
44148;BME280;29810;55.848;37.368;2022-12-18T15:17:56;99516.53;;;-6.55;100.00
44148;BME280;29810;55.848;37.368;2022-12-18T15:21:00;99491.53;;;-6.91;98.94
44148;BME280;29810;55.848;37.368;2022-12-18T15:24:17;99524.00;;;-6.60;100.00
44148;BME280;29810;55.848;37.368;2022-12-18T15:27:33;99522.84;;;-6.68;100.00
44148;BME280;29810;55.848;37.368;2022-12-18T15:30:37;99542.66;;;-6.58;100.00
44148;BME280;29810;55.848;37.368;2022-12-18T15:33:43;99536.44;;;-6.66;100.00
44148;BME280;29810;55.848;37.368;2022-12-18T15:36:51;99546.31;;;-6.74;100.00
44148;BME280;29810;55.848;37.368;2022-12-18T15:39:52;99525.94;;;-6.98;99.81
44148;BME280;29810;55.848;37.368;2022-12-18T15:42:54;99555.25;;;-7.05;99.87
44148;BME280;29810;55.848;37.368;2022-12-18T15:46:18;99550.47;;;-7.20;99.04
44148;BME280;29810;55.848;37.368;2022-12-18T15:49:20;99575.88;;;-7.18;100.00
44148;BME280;29810;55.848;37.368;2022-12-18T15:52:21;99574.34;;;-7.36;99.24
44148;BME280;29810;55.848;37.368;2022-12-18T15:55:27;99570.59;;;-7.44;99.62
44148;BME280;29810;55.848;37.368;2022-12-18T15:58:47;99542.66;;;-7.67;100.00
44148;BME280;29810;55.848;37.368;2022-12-18T16:01:51;99586.62;;;-7.65;97.84
44148;BME280;29810;55.848;37.368;2022-12-18T16:04:54;99596.31;;;-7.75;98.40
44148;BME280;29810;55.848;37.368;2022-12-18T16:07:56;99535.00;;;-8.28;96.64
44148;BME280;29810;55.848;37.368;2022-12-18T16:10:58;99602.53;;;-7.88;97.90
44148;BME280;29810;55.848;37.368;2022-12-18T16:13:59;99586.34;;;-8.11;98.57
44148;BME280;29810;55.848;37.368;2022-12-18T16:17:03;99530.50;;;-8.55;96.24
44148;BME280;29810;55.848;37.368;2022-12-18T16:20:14;99641.38;;;-8.07;97.99
44148;BME280;29810;55.848;37.368;2022-12-18T16:23:17;99601.97;;;-8.40;96.78
44148;BME280;29810;55.848;37.368;2022-12-18T16:26:18;99608.94;;;-8.54;94.87
44148;BME280;29810;55.848;37.368;2022-12-18T16:29:23;99605.75;;;-8.87;94.53
44148;BME280;29810;55.848;37.368;2022-12-18T16:32:28;99595.34;;;-8.93;95.41
44148;BME280;29810;55.848;37.368;2022-12-18T16:35:30;99663.44;;;-8.60;95.86
44148;BME280;29810;55.848;37.368;2022-12-18T16:38:32;99679.31;;;-8.63;96.78
44148;BME280;29810;55.848;37.368;2022-12-18T16:41:37;99673.13;;;-8.70;96.31
44148;BME280;29810;55.848;37.368;2022-12-18T16:44:39;99652.03;;;-8.88;96.96
44148;BME280;29810;55.848;37.368;2022-12-18T16:47:41;99682.28;;;-8.72;98.33
44148;BME280;29810;55.848;37.368;2022-12-18T16:50:42;99690.41;;;-8.95;95.77
44148;BME280;29810;55.848;37.368;2022-12-18T16:53:44;99703.37;;;-8.89;97.09
44148;BME280;29810;55.848;37.368;2022-12-18T16:56:45;99679.88;;;-9.05;96.80
44148;BME280;29810;55.848;37.368;2022-12-18T16:59:50;99698.66;;;-9.16;95.70
44148;BME280;29810;55.848;37.368;2022-12-18T17:02:51;99705.66;;;-9.12;97.62
44148;BME280;29810;55.848;37.368;2022-12-18T17:05:53;99697.75;;;-9.18;97.18
44148;BME280;29810;55.848;37.368;2022-12-18T17:09:06;99711.16;;;-9.03;99.20
44148;BME280;29810;55.848;37.368;2022-12-18T17:12:08;99713.13;;;-8.79;100.00
44148;BME280;29810;55.848;37.368;2022-12-18T17:15:10;99723.56;;;-8.73;99.77
44148;BME280;29810;55.848;37.368;2022-12-18T17:18:12;99721.63;;;-8.77;99.36